createdAt,value
2023-05-01T00:00:25.966Z,12.03
2023-05-01T00:03:14.563Z,11.99
2023-05-01T00:06:07.211Z,11.90
2023-05-01T00:08:59.126Z,11.92
2023-05-01T00:11:46.866Z,11.89
2023-05-01T00:15:13.287Z,11.93
2023-05-01T00:18:08.657Z,11.95
2023-05-01T00:20:56.905Z,11.90
2023-05-01T00:23:44.372Z,11.91
2023-05-01T00:26:33.321Z,11.80
2023-05-01T00:29:21.311Z,11.73
2023-05-01T00:32:10.408Z,11.76
2023-05-01T00:35:00.314Z,11.65
2023-05-01T00:37:48.911Z,11.66
2023-05-01T00:40:42.856Z,11.62
2023-05-01T00:43:31.743Z,11.59
2023-05-01T00:46:20.295Z,11.58
2023-05-01T00:49:08.231Z,11.56
2023-05-01T00:51:56.039Z,11.45
2023-05-01T00:54:43.869Z,11.49
2023-05-01T00:57:32.197Z,11.57
2023-05-01T01:00:23.445Z,11.52
2023-05-01T01:03:11.655Z,11.41
2023-05-01T01:06:10.013Z,11.50
2023-05-01T01:09:08.246Z,11.51
2023-05-01T01:12:06.683Z,11.47
2023-05-01T01:15:02.602Z,11.34
2023-05-01T01:17:59.798Z,11.48
2023-05-01T01:20:55.173Z,11.29
2023-05-01T01:24:03.931Z,11.35
2023-05-01T01:27:21.633Z,11.46
2023-05-01T01:30:42.379Z,11.31
2023-05-01T01:34:09.848Z,11.37
2023-05-01T01:37:08.766Z,11.28
2023-05-01T01:40:04.244Z,11.30
2023-05-01T01:42:55.721Z,11.20
2023-05-01T01:45:49.674Z,11.17
2023-05-01T01:48:46.732Z,11.23
2023-05-01T01:51:45.974Z,11.28
2023-05-01T01:54:43.437Z,11.24
2023-05-01T01:57:33.349Z,11.25
2023-05-01T02:00:41.654Z,11.23
2023-05-01T02:03:30.885Z,11.21
2023-05-01T02:06:19.507Z,11.20
2023-05-01T02:09:13.253Z,11.16
2023-05-01T02:12:03.102Z,11.19
2023-05-01T02:14:57.398Z,11.07
2023-05-01T02:17:45.978Z,11.10
2023-05-01T02:20:38.094Z,11.03
2023-05-01T02:23:29.354Z,10.95
2023-05-01T02:26:20.600Z,10.98
2023-05-01T02:29:08.814Z,11.02
2023-05-01T02:31:56.459Z,11.05
2023-05-01T02:34:45.067Z,10.97
2023-05-01T02:37:32.643Z,10.90
2023-05-01T02:40:20.677Z,10.93
2023-05-01T02:43:20.805Z,10.88
2023-05-01T02:46:11.070Z,10.85
2023-05-01T02:49:00.952Z,10.81
2023-05-01T02:51:52.592Z,10.83
2023-05-01T02:54:40.779Z,10.93
2023-05-01T02:57:28.538Z,10.82
2023-05-01T03:00:20.916Z,10.78
2023-05-01T03:03:08.411Z,10.73
2023-05-01T03:05:57.906Z,10.76
2023-05-01T03:08:48.136Z,10.85
2023-05-01T03:11:46.285Z,10.80
2023-05-01T03:14:38.063Z,10.66
2023-05-01T03:17:31.172Z,10.72
2023-05-01T03:20:19.328Z,10.76
2023-05-01T03:23:06.865Z,10.71
2023-05-01T03:25:54.849Z,10.46
2023-05-01T03:28:54.393Z,10.55
2023-05-01T03:31:44.868Z,10.24
2023-05-01T03:34:34.261Z,10.18
2023-05-01T03:37:24.931Z,10.25
2023-05-01T03:40:41.487Z,10.30
2023-05-01T03:43:29.585Z,10.12
2023-05-01T03:46:20.505Z,10.19
2023-05-01T03:49:08.231Z,10.17
2023-05-01T03:51:57.006Z,10.44
2023-05-01T03:54:44.852Z,10.26
2023-05-01T03:57:32.825Z,10.22
2023-05-01T04:00:27.547Z,10.33
2023-05-01T04:03:23.183Z,10.14
2023-05-01T04:06:13.999Z,10.10
2023-05-01T04:09:03.151Z,10.11
2023-05-01T04:11:51.639Z,10.05
2023-05-01T04:14:39.317Z,9.93
2023-05-01T04:17:26.921Z,10.03
2023-05-01T04:20:14.263Z,10.06
2023-05-01T04:23:03.175Z,10.15
2023-05-01T04:26:00.963Z,10.11
2023-05-01T04:28:51.375Z,10.13
2023-05-01T04:31:38.798Z,10.13
2023-05-01T04:34:29.677Z,10.21
2023-05-01T04:37:18.675Z,10.12
2023-05-01T04:40:11.554Z,10.30
2023-05-01T04:43:03.979Z,10.16
2023-05-01T04:45:59.348Z,10.41
2023-05-01T04:49:07.893Z,10.44
2023-05-01T04:51:55.633Z,10.47
2023-05-01T04:54:44.923Z,10.62
2023-05-01T04:57:32.459Z,10.57
2023-05-01T05:00:24.175Z,10.68
2023-05-01T05:03:19.950Z,10.79
2023-05-01T05:06:07.506Z,10.92
2023-05-01T05:09:05.123Z,10.98
2023-05-01T05:11:55.565Z,11.12
2023-05-01T05:14:43.562Z,11.20
2023-05-01T05:17:35.085Z,11.34
2023-05-01T05:20:22.768Z,11.42
2023-05-01T05:23:10.475Z,11.51
2023-05-01T05:26:01.769Z,11.61
2023-05-01T05:28:54.111Z,11.72
2023-05-01T05:31:42.193Z,11.82
2023-05-01T05:34:39.025Z,11.86
2023-05-01T05:37:32.608Z,12.02
2023-05-01T05:40:26.417Z,11.95
2023-05-01T05:43:14.160Z,12.08
2023-05-01T05:46:08.832Z,12.08
2023-05-01T05:49:04.416Z,12.29
2023-05-01T05:51:56.919Z,12.18
2023-05-01T05:54:47.881Z,12.17
2023-05-01T05:57:40.586Z,12.12
2023-05-01T06:00:53.542Z,12.15
2023-05-01T06:03:41.505Z,12.11
2023-05-01T06:06:29.520Z,12.08
2023-05-01T06:09:23.955Z,12.19
2023-05-01T06:12:11.378Z,12.18
2023-05-01T06:15:12.073Z,12.34
2023-05-01T06:18:07.888Z,12.36
2023-05-01T06:21:04.069Z,12.54
2023-05-01T06:23:51.569Z,12.40
2023-05-01T06:26:40.820Z,12.55
2023-05-01T06:29:41.859Z,12.52
2023-05-01T06:32:29.466Z,12.41
2023-05-01T06:35:24.605Z,12.45
2023-05-01T06:38:12.343Z,12.56
2023-05-01T06:40:59.839Z,12.61
2023-05-01T06:43:52.828Z,12.58
2023-05-01T06:46:42.520Z,12.75
2023-05-01T06:49:30.682Z,12.67
2023-05-01T06:52:21.693Z,12.87
2023-05-01T06:55:10.252Z,12.94
2023-05-01T06:57:58.316Z,13.21
2023-05-01T07:00:47.830Z,13.06
2023-05-01T07:03:42.461Z,13.45
2023-05-01T07:06:30.079Z,13.17
2023-05-01T07:09:21.576Z,13.20
2023-05-01T07:12:15.469Z,13.10
2023-05-01T07:15:06.888Z,13.25
2023-05-01T07:17:56.874Z,13.02
2023-05-01T07:21:18.917Z,13.37
2023-05-01T07:24:09.967Z,13.29
2023-05-01T07:27:07.784Z,13.33
2023-05-01T07:29:56.126Z,13.45
2023-05-01T07:32:44.609Z,13.57
2023-05-01T07:35:36.364Z,13.48
2023-05-01T07:38:24.504Z,13.63
2023-05-01T07:41:13.479Z,13.86
2023-05-01T07:44:09.610Z,14.17
2023-05-01T07:47:12.910Z,14.09
2023-05-01T07:50:02.243Z,14.19
2023-05-01T07:53:08.685Z,14.20
2023-05-01T07:56:06.485Z,14.23
2023-05-01T07:58:56.180Z,14.35
2023-05-01T08:01:46.149Z,14.49
2023-05-01T08:04:38.845Z,14.58
2023-05-01T08:07:26.678Z,14.28
2023-05-01T08:10:18.624Z,14.75
2023-05-01T08:13:06.002Z,14.48
2023-05-01T08:16:01.038Z,14.89
2023-05-01T08:18:49.008Z,14.72
2023-05-01T08:21:39.225Z,14.90
2023-05-01T08:24:32.858Z,15.01
2023-05-01T08:27:22.153Z,14.93
2023-05-01T08:30:10.480Z,14.98
2023-05-01T08:32:58.076Z,15.11
2023-05-01T08:35:46.492Z,14.52
2023-05-01T08:38:36.580Z,15.29
2023-05-01T08:41:24.328Z,14.82
2023-05-01T08:44:15.999Z,15.30
2023-05-01T08:47:14.887Z,15.52
2023-05-01T08:50:04.598Z,15.14
2023-05-01T08:52:53.356Z,15.72
2023-05-01T08:55:44.220Z,16.50
2023-05-01T08:58:35.748Z,15.97
2023-05-01T09:01:43.721Z,16.33
2023-05-01T09:04:33.164Z,16.90
2023-05-01T09:07:23.516Z,17.34
2023-05-01T09:10:12.709Z,16.70
2023-05-01T09:13:02.251Z,16.40
2023-05-01T09:15:55.316Z,16.64
2023-05-01T09:18:45.086Z,17.58
2023-05-01T09:21:32.941Z,17.79
2023-05-01T09:24:31.582Z,17.32
2023-05-01T09:27:20.182Z,17.55
2023-05-01T09:30:13.404Z,16.58
2023-05-01T09:33:17.194Z,17.64
2023-05-01T09:36:06.772Z,17.71
2023-05-01T09:38:57.572Z,17.30
2023-05-01T09:41:54.461Z,17.11
2023-05-01T09:44:43.504Z,16.91
2023-05-01T09:47:34.401Z,16.74
2023-05-01T09:50:46.655Z,17.00
2023-05-01T09:53:38.671Z,17.01
2023-05-01T09:56:27.587Z,16.86
2023-05-01T10:00:11.671Z,17.52
2023-05-01T10:03:37.880Z,17.17
2023-05-01T10:06:29.107Z,16.89
2023-05-01T10:09:28.141Z,17.15
2023-05-01T10:12:23.528Z,17.20
2023-05-01T10:15:24.596Z,17.16
2023-05-01T10:18:15.075Z,16.71
2023-05-01T10:21:03.847Z,16.52
2023-05-01T10:23:52.427Z,16.85
2023-05-01T10:26:45.005Z,16.61
2023-05-01T10:29:36.747Z,16.66
2023-05-01T10:32:24.426Z,16.78
2023-05-01T10:35:26.072Z,17.14
2023-05-01T10:38:23.008Z,17.30
2023-05-01T10:41:11.057Z,16.94
2023-05-01T10:44:21.922Z,16.92
2023-05-01T10:47:49.498Z,16.56
2023-05-01T10:51:15.774Z,16.82
2023-05-01T10:54:25.346Z,16.46
2023-05-01T10:57:42.435Z,16.13
2023-05-01T11:00:34.522Z,16.01
2023-05-01T11:03:40.285Z,15.98
2023-05-01T11:06:29.999Z,16.09
2023-05-01T11:09:38.161Z,15.85
2023-05-01T11:12:58.749Z,15.81
2023-05-01T11:15:50.285Z,15.82
2023-05-01T11:18:48.289Z,15.77
2023-05-01T11:21:36.688Z,15.59
2023-05-01T11:24:32.117Z,15.57
2023-05-01T11:27:26.739Z,15.28
2023-05-01T11:30:14.415Z,15.32
2023-05-01T11:33:04.572Z,15.01
2023-05-01T11:36:01.691Z,14.72
2023-05-01T11:38:53.763Z,14.44
2023-05-01T11:41:45.227Z,14.05
2023-05-01T11:44:33.049Z,13.90
2023-05-01T11:47:20.304Z,13.88
2023-05-01T11:50:11.116Z,13.79
2023-05-01T11:52:58.537Z,13.63
2023-05-01T11:55:46.242Z,13.40
2023-05-01T11:58:38.601Z,13.37
2023-05-01T12:01:36.083Z,13.22
2023-05-01T12:04:34.963Z,13.27
2023-05-01T12:07:23.992Z,13.32
2023-05-01T12:10:11.697Z,13.18
2023-05-01T12:13:04.100Z,13.25
2023-05-01T12:15:52.625Z,13.32
2023-05-01T12:18:40.094Z,13.40
2023-05-01T12:21:36.817Z,13.42
2023-05-01T12:24:25.895Z,13.67
2023-05-01T12:27:21.884Z,13.65
2023-05-01T12:30:13.872Z,13.84
2023-05-01T12:33:09.552Z,13.80
2023-05-01T12:36:10.201Z,14.14
2023-05-01T12:39:22.948Z,14.48
2023-05-01T12:42:16.264Z,14.48
2023-05-01T12:45:07.172Z,14.63
2023-05-01T12:47:55.159Z,14.49
2023-05-01T12:50:43.651Z,14.61
2023-05-01T12:53:38.426Z,14.67
2023-05-01T12:56:28.215Z,15.02
2023-05-01T12:59:26.319Z,15.21
2023-05-01T13:02:31.639Z,15.42
2023-05-01T13:05:22.525Z,15.52
2023-05-01T13:08:10.362Z,16.06
2023-05-01T13:11:21.888Z,16.10
2023-05-01T13:14:10.918Z,16.65
2023-05-01T13:17:03.395Z,16.98
2023-05-01T13:19:54.766Z,16.28
2023-05-01T13:22:47.448Z,16.33
2023-05-01T13:25:34.865Z,16.49
2023-05-01T13:28:32.696Z,16.38
2023-05-01T13:31:20.290Z,15.82
2023-05-01T13:34:16.686Z,16.37
2023-05-01T13:37:20.894Z,16.46
2023-05-01T13:40:13.001Z,16.65
2023-05-01T13:43:00.420Z,16.54
2023-05-01T13:45:47.802Z,16.94
2023-05-01T13:48:35.654Z,16.69
2023-05-01T13:51:29.893Z,16.84
2023-05-01T13:54:20.239Z,16.98
2023-05-01T13:57:11.316Z,17.21
2023-05-01T13:59:59.202Z,17.48
2023-05-01T14:02:57.091Z,17.83
2023-05-01T14:05:49.379Z,17.31
2023-05-01T14:08:39.546Z,17.33
2023-05-01T14:11:27.130Z,17.59
2023-05-01T14:14:27.647Z,17.57
2023-05-01T14:17:25.722Z,17.85
2023-05-01T14:20:22.364Z,17.62
2023-05-01T14:23:11.081Z,18.00
2023-05-01T14:26:46.580Z,17.61
2023-05-01T14:29:48.513Z,18.04
2023-05-01T14:36:15.328Z,18.34
2023-05-01T14:39:04.342Z,17.84
2023-05-01T14:41:58.420Z,17.22
2023-05-01T14:44:54.576Z,17.31
2023-05-01T14:47:53.692Z,17.22
2023-05-01T14:50:42.166Z,17.20
2023-05-01T14:53:38.603Z,17.04
2023-05-01T14:56:26.574Z,17.59
2023-05-01T14:59:39.219Z,17.93
2023-05-01T15:02:28.211Z,17.53
2023-05-01T15:05:17.968Z,17.59
2023-05-01T15:08:06.921Z,17.42
2023-05-01T15:10:57.707Z,17.12
2023-05-01T15:13:46.281Z,16.59
2023-05-01T15:16:35.605Z,16.60
2023-05-01T15:19:25.174Z,16.41
2023-05-01T15:22:12.989Z,16.34
2023-05-01T15:25:06.136Z,16.94
2023-05-01T15:27:57.769Z,16.76
2023-05-01T15:30:58.176Z,16.50
2023-05-01T15:33:48.880Z,16.42
2023-05-01T15:36:43.732Z,16.76
2023-05-01T15:39:31.059Z,16.71
2023-05-01T15:45:45.803Z,17.75
2023-05-01T15:48:33.906Z,17.75
2023-05-01T15:51:36.196Z,17.97
2023-05-01T15:54:24.780Z,17.18
2023-05-01T15:57:12.180Z,16.97
2023-05-01T15:59:59.969Z,17.04
2023-05-01T16:02:48.131Z,17.36
2023-05-01T16:05:54.442Z,17.56
2023-05-01T16:08:43.761Z,17.72
2023-05-01T16:11:32.480Z,17.71
2023-05-01T16:14:21.137Z,17.90
2023-05-01T16:17:12.975Z,17.52
2023-05-01T16:20:02.852Z,18.31
2023-05-01T16:22:53.993Z,18.19
2023-05-01T16:25:44.192Z,17.62
2023-05-01T16:28:34.294Z,17.41
2023-05-01T16:32:21.344Z,17.43
2023-05-01T16:35:10.840Z,18.01
2023-05-01T16:37:59.804Z,18.05
2023-05-01T16:40:48.886Z,18.30
2023-05-01T16:43:36.562Z,18.43
2023-05-01T16:46:25.282Z,18.08
2023-05-01T16:49:14.308Z,17.43
2023-05-01T16:52:19.146Z,17.22
2023-05-01T16:55:09.207Z,16.91
2023-05-01T16:58:58.044Z,17.07
2023-05-01T17:03:15.073Z,16.62
2023-05-01T17:06:02.116Z,15.84
2023-05-01T17:08:50.230Z,16.21
2023-05-01T17:11:37.959Z,15.92
2023-05-01T17:14:25.561Z,16.05
2023-05-01T17:17:13.508Z,16.26
2023-05-01T17:20:11.046Z,16.08
2023-05-01T17:23:00.165Z,15.89
2023-05-01T17:25:52.347Z,15.50
2023-05-01T17:28:39.714Z,15.07
2023-05-01T17:31:27.657Z,14.85
2023-05-01T17:34:15.247Z,14.76
2023-05-01T17:37:03.163Z,14.78
2023-05-01T17:39:53.250Z,14.57
2023-05-01T17:42:41.876Z,14.59
2023-05-01T17:45:50.285Z,14.39
2023-05-01T17:48:45.181Z,14.21
2023-05-01T17:51:34.719Z,14.01
2023-05-01T17:54:25.746Z,14.05
2023-05-01T17:57:14.926Z,13.88
2023-05-01T18:00:11.897Z,13.82
2023-05-01T18:03:01.282Z,13.87
2023-05-01T18:05:49.312Z,13.82
2023-05-01T18:08:36.824Z,13.98
2023-05-01T18:11:24.348Z,13.90
2023-05-01T18:14:13.408Z,13.88
2023-05-01T18:17:01.311Z,13.67
2023-05-01T18:19:49.925Z,13.54
2023-05-01T18:22:38.069Z,13.44
2023-05-01T18:25:25.682Z,13.01
2023-05-01T18:28:21.504Z,13.00
2023-05-01T18:31:14.437Z,13.08
2023-05-01T18:34:01.827Z,12.89
2023-05-01T18:36:52.626Z,12.74
2023-05-01T18:39:42.751Z,12.57
2023-05-01T18:42:30.354Z,12.56
2023-05-01T18:45:38.565Z,12.41
2023-05-01T18:48:48.831Z,12.37
2023-05-01T18:51:42.328Z,12.29
2023-05-01T18:54:29.714Z,12.44
2023-05-01T18:57:17.204Z,12.35
2023-05-01T19:00:06.953Z,12.30
2023-05-01T19:02:54.495Z,12.32
2023-05-01T19:05:44.147Z,12.22
2023-05-01T19:08:34.438Z,12.10
2023-05-01T19:11:31.864Z,11.81
2023-05-01T19:14:21.770Z,11.82
2023-05-01T19:17:09.694Z,11.72
2023-05-01T19:20:04.468Z,11.41
2023-05-01T19:22:53.895Z,11.30
2023-05-01T19:25:41.216Z,11.31
2023-05-01T19:28:31.686Z,11.37
2023-05-01T19:31:21.657Z,11.34
2023-05-01T19:38:24.021Z,11.19
2023-05-01T19:41:13.355Z,11.25
2023-05-01T19:44:01.630Z,11.23
2023-05-01T19:47:07.971Z,11.37
2023-05-01T19:49:55.382Z,11.33
2023-05-01T19:52:44.632Z,11.34
2023-05-01T19:55:35.608Z,11.26
2023-05-01T19:58:28.185Z,11.44
2023-05-01T20:01:15.541Z,11.43
2023-05-01T20:04:03.055Z,11.45
2023-05-01T20:06:51.551Z,11.32
2023-05-01T20:09:48.228Z,11.40
2023-05-01T20:12:38.254Z,11.33
2023-05-01T20:15:26.924Z,11.38
2023-05-01T20:18:17.234Z,11.49
2023-05-01T20:21:07.796Z,11.50
2023-05-01T20:23:59.622Z,11.49
2023-05-01T20:26:56.280Z,11.38
2023-05-01T20:29:57.606Z,11.50
2023-05-01T20:32:48.961Z,11.42
2023-05-01T20:35:39.476Z,11.29
2023-05-01T20:38:27.489Z,11.25
2023-05-01T20:41:15.325Z,11.26
2023-05-01T20:44:07.239Z,11.16
2023-05-01T20:46:55.284Z,11.13
2023-05-01T20:49:59.916Z,11.09
2023-05-01T20:52:47.522Z,11.04
2023-05-01T20:55:35.293Z,11.04
2023-05-01T20:58:23.309Z,11.07
2023-05-01T21:01:10.975Z,11.06
2023-05-01T21:04:00.211Z,10.86
2023-05-01T21:06:52.014Z,11.01
2023-05-01T21:09:48.298Z,11.03
2023-05-01T21:12:36.424Z,10.99
2023-05-01T21:15:34.241Z,10.89
2023-05-01T21:18:22.335Z,11.04
2023-05-01T21:21:10.688Z,11.07
2023-05-01T21:24:04.510Z,10.86
2023-05-01T21:27:01.515Z,10.79
2023-05-01T21:30:02.913Z,10.85
2023-05-01T21:33:12.294Z,10.77
2023-05-01T21:36:00.239Z,10.75
2023-05-01T21:38:52.496Z,10.76
2023-05-01T21:41:51.143Z,10.75
2023-05-01T21:44:42.412Z,10.71
2023-05-01T21:47:36.809Z,10.73
2023-05-01T21:50:24.376Z,10.80
2023-05-01T21:53:31.925Z,10.74
2023-05-01T21:56:24.055Z,10.71
2023-05-01T21:59:18.014Z,10.66
2023-05-01T22:02:09.435Z,10.60
2023-05-01T22:04:57.124Z,10.60
2023-05-01T22:07:46.950Z,10.48
2023-05-01T22:10:35.254Z,10.52
2023-05-01T22:13:23.393Z,10.55
2023-05-01T22:16:13.688Z,10.53
2023-05-01T22:19:01.345Z,10.55
2023-05-01T22:21:48.756Z,10.54
2023-05-01T22:24:36.421Z,10.62
2023-05-01T22:27:24.326Z,10.69
2023-05-01T22:30:12.750Z,10.63
2023-05-01T22:33:01.950Z,10.63
2023-05-01T22:35:52.127Z,10.66
2023-05-01T22:38:39.888Z,10.67
2023-05-01T22:41:30.928Z,10.75
2023-05-01T22:44:19.972Z,10.81
2023-05-01T22:47:09.391Z,10.81
2023-05-01T22:49:58.421Z,10.84
2023-05-01T22:52:46.559Z,10.83
2023-05-01T22:55:34.142Z,10.86
2023-05-01T22:58:21.945Z,10.90
2023-05-01T23:01:09.648Z,10.94
2023-05-01T23:03:57.576Z,10.90
2023-05-01T23:06:46.818Z,10.91
2023-05-01T23:09:34.525Z,10.82
2023-05-01T23:12:23.894Z,10.82
2023-05-01T23:15:16.983Z,10.81
2023-05-01T23:18:04.746Z,10.74
2023-05-01T23:20:52.947Z,10.73
2023-05-01T23:23:45.357Z,10.75
2023-05-01T23:26:34.717Z,10.72
2023-05-01T23:29:22.863Z,10.76
2023-05-01T23:32:26.743Z,10.71
2023-05-01T23:35:18.744Z,10.82
2023-05-01T23:38:06.037Z,10.72
2023-05-01T23:40:55.126Z,10.73
2023-05-01T23:43:46.501Z,10.68
2023-05-01T23:46:35.604Z,10.75
2023-05-01T23:49:23.205Z,10.85
2023-05-01T23:52:10.428Z,10.64
2023-05-01T23:54:57.783Z,10.71
2023-05-01T23:57:50.465Z,10.75
